createdAt,value
2022-09-15T00:00:20.034Z,14.94
2022-09-15T00:05:21.537Z,15.05
2022-09-15T00:10:22.976Z,15.17
2022-09-15T00:15:24.548Z,15.25
2022-09-15T00:20:25.999Z,15.32
2022-09-15T00:25:27.461Z,15.37
2022-09-15T00:30:29.005Z,15.41
2022-09-15T00:35:30.500Z,15.45
2022-09-15T00:40:32.126Z,15.48
2022-09-15T00:45:33.627Z,15.48
2022-09-15T00:50:37.503Z,15.49
2022-09-15T00:55:47.369Z,15.51
2022-09-15T01:00:57.553Z,15.54
2022-09-15T01:06:10.191Z,15.53
2022-09-15T01:11:11.750Z,15.53
2022-09-15T01:16:24.307Z,15.51
2022-09-15T01:21:40.609Z,15.45
2022-09-15T01:26:44.925Z,15.38
2022-09-15T01:32:39.849Z,15.28
2022-09-15T01:38:00.172Z,15.14
2022-09-15T01:43:03.197Z,15.06
2022-09-15T01:48:08.722Z,15.05
2022-09-15T01:53:15.172Z,15.08
2022-09-15T01:58:16.682Z,15.13
2022-09-15T02:03:28.614Z,15.16
2022-09-15T02:08:47.563Z,15.24
2022-09-15T02:14:13.601Z,15.31
2022-09-15T02:19:36.038Z,15.40
2022-09-15T02:24:45.731Z,15.43
2022-09-15T02:29:48.854Z,15.45
2022-09-15T02:34:54.530Z,15.42
2022-09-15T02:39:59.009Z,15.39
2022-09-15T02:45:01.515Z,15.46
2022-09-15T02:50:03.117Z,15.40
2022-09-15T02:55:05.075Z,15.42
2022-09-15T03:00:13.918Z,15.45
2022-09-15T03:05:16.711Z,15.44
2022-09-15T03:10:18.870Z,15.50
2022-09-15T03:15:23.756Z,15.50
2022-09-15T03:20:30.363Z,15.46
2022-09-15T03:25:32.354Z,15.48
2022-09-15T03:30:33.792Z,15.51
2022-09-15T03:35:35.292Z,15.46
2022-09-15T03:40:37.736Z,15.42
2022-09-15T03:45:39.451Z,15.41
2022-09-15T03:50:40.922Z,15.38
2022-09-15T03:55:42.435Z,15.34
2022-09-15T04:00:45.699Z,15.31
2022-09-15T04:05:47.387Z,15.25
2022-09-15T04:10:48.856Z,15.24
2022-09-15T04:16:05.855Z,15.23
2022-09-15T04:21:11.501Z,15.15
2022-09-15T04:26:26.001Z,15.10
2022-09-15T04:31:27.702Z,15.05
2022-09-15T04:36:29.400Z,15.04
2022-09-15T04:41:30.866Z,15.01
2022-09-15T04:46:32.662Z,14.95
2022-09-15T04:51:34.168Z,14.97
2022-09-15T04:56:35.626Z,14.95
2022-09-15T05:01:37.131Z,14.90
2022-09-15T05:06:38.838Z,14.94
2022-09-15T05:11:40.637Z,14.93
2022-09-15T05:16:42.207Z,14.90
2022-09-15T05:21:43.765Z,14.86
2022-09-15T05:26:45.203Z,14.88
2022-09-15T05:31:46.691Z,14.85
2022-09-15T05:36:48.145Z,14.78
2022-09-15T05:41:50.075Z,14.68
2022-09-15T05:46:52.375Z,14.53
2022-09-15T05:51:54.067Z,14.47
2022-09-15T05:56:55.512Z,14.41
2022-09-15T06:01:59.578Z,14.42
2022-09-15T06:07:01.079Z,14.48
2022-09-15T06:12:02.654Z,14.50
2022-09-15T06:17:04.273Z,14.62
2022-09-15T06:22:05.747Z,14.73
2022-09-15T06:27:07.774Z,14.81
2022-09-15T06:32:09.268Z,14.88
2022-09-15T06:37:11.862Z,14.91
2022-09-15T06:42:14.020Z,14.91
2022-09-15T06:47:15.600Z,14.90
2022-09-15T06:52:17.061Z,14.94
2022-09-15T06:57:18.575Z,14.97
2022-09-15T07:02:20.173Z,15.04
2022-09-15T07:07:21.696Z,15.09
2022-09-15T07:12:23.151Z,15.14
2022-09-15T07:17:26.487Z,15.27
2022-09-15T07:22:28.087Z,15.34
2022-09-15T07:27:31.663Z,15.35
2022-09-15T07:32:33.196Z,15.36
2022-09-15T07:37:35.932Z,15.38
2022-09-15T07:42:37.547Z,15.46
2022-09-15T07:47:39.281Z,15.50
2022-09-15T07:52:40.793Z,15.56
2022-09-15T07:57:42.252Z,15.65
2022-09-15T08:02:43.726Z,15.79
2022-09-15T08:07:45.169Z,15.91
2022-09-15T08:12:46.669Z,16.02
2022-09-15T08:17:48.188Z,16.15
2022-09-15T08:22:49.658Z,16.24
2022-09-15T08:27:52.873Z,16.33
2022-09-15T08:32:54.388Z,16.41
2022-09-15T08:37:55.856Z,16.41
2022-09-15T08:43:03.546Z,16.43
2022-09-15T08:48:08.427Z,16.43
2022-09-15T08:53:20.059Z,16.38
2022-09-15T08:58:37.737Z,16.41
2022-09-15T09:04:03.560Z,16.72
2022-09-15T09:09:20.124Z,16.94
2022-09-15T09:14:36.365Z,17.15
2022-09-15T09:19:53.060Z,17.68
2022-09-15T09:24:58.215Z,17.98
2022-09-15T09:30:20.061Z,18.07
2022-09-15T09:35:54.087Z,17.93
2022-09-15T09:41:01.315Z,17.70
2022-09-15T09:46:13.622Z,17.89
2022-09-15T09:51:51.785Z,18.03
2022-09-15T09:56:55.322Z,17.64
2022-09-15T10:02:06.027Z,17.37
2022-09-15T10:07:08.838Z,17.28
2022-09-15T10:12:32.050Z,17.48
2022-09-15T10:17:36.139Z,17.75
2022-09-15T10:22:42.135Z,18.06
2022-09-15T10:27:44.232Z,18.30
2022-09-15T10:32:45.779Z,18.34
2022-09-15T10:38:04.969Z,18.27
2022-09-15T10:43:46.100Z,18.22
2022-09-15T10:49:03.471Z,18.31
2022-09-15T10:54:10.724Z,18.59
2022-09-15T10:59:30.394Z,18.71
2022-09-15T11:04:50.620Z,18.94
2022-09-15T11:10:12.046Z,19.07
2022-09-15T11:15:42.637Z,18.60
2022-09-15T11:21:09.103Z,18.08
2022-09-15T11:26:23.402Z,18.10
2022-09-15T11:31:31.488Z,18.01
2022-09-15T11:36:44.983Z,17.68
2022-09-15T11:41:56.261Z,17.40
2022-09-15T11:47:22.264Z,17.46
2022-09-15T11:52:35.750Z,17.60
2022-09-15T11:57:44.558Z,17.61
2022-09-15T12:03:01.703Z,17.55
2022-09-15T12:08:12.786Z,17.43
2022-09-15T12:13:18.302Z,17.31
2022-09-15T12:18:38.573Z,17.31
2022-09-15T12:23:53.134Z,17.46
2022-09-15T12:29:02.426Z,17.58
2022-09-15T12:34:25.701Z,17.66
2022-09-15T12:39:36.441Z,17.80
2022-09-15T12:44:42.958Z,17.95
2022-09-15T12:49:49.166Z,18.06
2022-09-15T12:54:58.657Z,18.14
2022-09-15T13:00:31.286Z,18.18
2022-09-15T13:05:42.003Z,18.23
2022-09-15T13:11:00.849Z,18.29
2022-09-15T13:16:06.874Z,18.47
2022-09-15T13:21:14.023Z,18.52
2022-09-15T13:26:17.998Z,18.45
2022-09-15T13:31:34.625Z,18.28
2022-09-15T13:42:35.412Z,18.15
2022-09-15T13:47:58.796Z,18.15
2022-09-15T13:53:20.482Z,18.22
2022-09-15T14:03:55.139Z,18.09
2022-09-15T14:09:00.802Z,18.21
2022-09-15T14:14:03.394Z,18.25
2022-09-15T14:19:33.710Z,18.11
2022-09-15T14:24:40.117Z,17.91
2022-09-15T14:29:43.797Z,18.02
2022-09-15T14:39:56.528Z,17.87
2022-09-15T14:50:33.557Z,17.58
2022-09-15T14:55:53.233Z,17.45
2022-09-15T15:01:17.258Z,17.38
2022-09-15T15:06:29.603Z,17.26
2022-09-15T15:11:34.545Z,16.95
2022-09-15T15:16:36.135Z,16.82
2022-09-15T15:21:43.202Z,16.80
2022-09-15T15:26:46.428Z,16.85
2022-09-15T15:31:47.961Z,16.84
2022-09-15T15:36:49.479Z,16.70
2022-09-15T15:42:02.186Z,16.62
2022-09-15T15:47:24.595Z,16.61
2022-09-15T15:52:26.091Z,16.70
2022-09-15T15:57:32.966Z,16.66
2022-09-15T16:02:35.124Z,16.50
2022-09-15T16:07:37.520Z,16.37
2022-09-15T16:12:39.060Z,16.35
2022-09-15T16:17:45.852Z,16.32
2022-09-15T16:22:48.339Z,16.30
2022-09-15T16:27:49.817Z,16.10
2022-09-15T16:32:51.718Z,15.75
2022-09-15T16:37:53.270Z,15.47
2022-09-15T16:42:54.853Z,15.33
2022-09-15T16:47:56.394Z,15.19
2022-09-15T16:53:00.013Z,15.13
2022-09-15T16:58:03.282Z,15.01
2022-09-15T17:03:06.746Z,14.83
2022-09-15T17:08:09.701Z,14.77
2022-09-15T17:13:25.059Z,14.70
2022-09-15T17:18:29.531Z,14.68
2022-09-15T17:23:38.888Z,14.67
2022-09-15T17:28:41.187Z,14.57
2022-09-15T17:33:43.786Z,14.52
2022-09-15T17:38:46.023Z,14.45
2022-09-15T17:43:48.351Z,14.32
2022-09-15T17:48:49.797Z,14.17
2022-09-15T17:53:51.346Z,13.98
2022-09-15T17:58:52.867Z,13.93
2022-09-15T18:03:54.423Z,13.85
2022-09-15T18:08:57.061Z,13.82
2022-09-15T18:13:58.545Z,13.70
2022-09-15T18:19:00.003Z,13.57
2022-09-15T18:24:01.592Z,13.50
2022-09-15T18:29:03.483Z,13.41
2022-09-15T18:34:05.041Z,13.32
2022-09-15T18:39:06.665Z,13.31
2022-09-15T18:44:08.142Z,13.32
2022-09-15T18:49:09.843Z,13.27
2022-09-15T18:54:11.320Z,13.21
2022-09-15T18:59:15.538Z,13.23
2022-09-15T19:04:19.121Z,13.21
2022-09-15T19:09:20.650Z,13.10
2022-09-15T19:14:22.153Z,13.03
2022-09-15T19:19:24.048Z,12.98
2022-09-15T19:24:31.872Z,12.97
2022-09-15T19:29:35.672Z,13.04
2022-09-15T19:34:38.807Z,13.16
2022-09-15T19:39:40.693Z,13.27
2022-09-15T19:44:42.293Z,13.31
2022-09-15T19:49:43.798Z,13.29
2022-09-15T19:54:45.292Z,13.29
2022-09-15T19:59:47.028Z,13.32
2022-09-15T20:04:50.353Z,13.28
2022-09-15T20:09:53.305Z,13.21
2022-09-15T20:14:54.808Z,13.16
2022-09-15T20:19:56.261Z,13.08
2022-09-15T20:24:57.740Z,13.10
2022-09-15T20:29:59.511Z,13.04
2022-09-15T20:35:01.223Z,13.00
2022-09-15T20:40:04.375Z,12.99
2022-09-15T20:45:06.518Z,13.02
2022-09-15T20:50:08.399Z,13.08
2022-09-15T20:55:09.832Z,13.16
2022-09-15T21:00:12.037Z,13.17
2022-09-15T21:05:13.537Z,13.12
2022-09-15T21:10:15.595Z,13.07
2022-09-15T21:15:17.053Z,13.01
2022-09-15T21:20:18.902Z,12.90
2022-09-15T21:25:20.978Z,12.81
2022-09-15T21:30:22.419Z,12.81
2022-09-15T21:35:23.892Z,12.80
2022-09-15T21:40:25.394Z,12.73
2022-09-15T21:45:27.129Z,12.79
2022-09-15T21:50:29.697Z,12.72
2022-09-15T21:55:31.145Z,12.62
2022-09-15T22:00:32.582Z,12.58
2022-09-15T22:05:34.063Z,12.52
2022-09-15T22:10:35.691Z,12.50
2022-09-15T22:15:37.384Z,12.58
2022-09-15T22:20:38.825Z,12.69
2022-09-15T22:25:40.277Z,12.66
2022-09-15T22:30:41.759Z,12.68
2022-09-15T22:35:47.508Z,12.63
2022-09-15T22:40:49.209Z,12.62
2022-09-15T22:45:50.778Z,12.57
2022-09-15T22:50:52.342Z,12.59
2022-09-15T22:56:04.928Z,12.59
2022-09-15T23:01:09.618Z,12.58
2022-09-15T23:06:11.458Z,12.63
2022-09-15T23:11:13.937Z,12.64
2022-09-15T23:16:16.111Z,12.65
2022-09-15T23:21:17.876Z,12.67
2022-09-15T23:26:21.688Z,12.59
2022-09-15T23:31:23.494Z,12.46
2022-09-15T23:36:25.079Z,12.29
2022-09-15T23:41:26.585Z,12.17
2022-09-15T23:46:28.173Z,12.09
2022-09-15T23:51:30.212Z,12.17
2022-09-15T23:56:33.716Z,12.21
